createdAt,value
2017-10-10T00:00:05.632Z,11.8
2017-10-10T00:01:05.935Z,11.69
2017-10-10T00:02:05.936Z,11.77
2017-10-10T00:03:05.597Z,11.78
2017-10-10T00:04:05.923Z,11.84
2017-10-10T00:05:05.628Z,11.8
2017-10-10T00:06:05.593Z,11.78
2017-10-10T00:07:05.925Z,11.68
2017-10-10T00:08:05.592Z,11.72
2017-10-10T00:09:05.703Z,11.65
2017-10-10T00:10:05.579Z,11.75
2017-10-10T00:11:05.913Z,11.72
2017-10-10T00:12:05.582Z,11.72
2017-10-10T00:13:05.595Z,11.68
2017-10-10T00:14:05.250Z,11.78
2017-10-10T00:15:05.624Z,11.7
2017-10-10T00:16:05.935Z,11.8
2017-10-10T00:17:05.879Z,11.78
2017-10-10T00:18:05.551Z,11.7
2017-10-10T00:19:05.555Z,11.63
2017-10-10T00:20:05.558Z,11.65
2017-10-10T00:21:05.552Z,11.7
2017-10-10T00:22:05.542Z,11.69
2017-10-10T00:23:05.879Z,11.72
2017-10-10T00:24:05.870Z,11.72
2017-10-10T00:25:05.574Z,11.69
2017-10-10T00:26:05.853Z,11.75
2017-10-10T00:27:05.865Z,11.7
2017-10-10T00:28:05.210Z,11.68
2017-10-10T00:29:05.547Z,11.75
2017-10-10T00:30:05.849Z,11.73
2017-10-10T00:31:05.980Z,11.69
2017-10-10T00:32:05.869Z,11.7
2017-10-10T00:33:05.835Z,11.69
2017-10-10T00:34:05.840Z,11.75
2017-10-10T00:35:05.531Z,11.75
2017-10-10T00:36:05.829Z,11.7
2017-10-10T00:37:05.827Z,11.7
2017-10-10T00:38:05.505Z,11.69
2017-10-10T00:39:05.819Z,11.83
2017-10-10T00:40:05.211Z,11.78
2017-10-10T00:41:05.501Z,11.69
2017-10-10T00:42:05.814Z,11.81
2017-10-10T00:43:05.490Z,11.78
2017-10-10T00:44:05.811Z,11.78
2017-10-10T00:45:05.503Z,11.86
2017-10-10T00:46:05.534Z,11.81
2017-10-10T00:47:05.478Z,11.87
2017-10-10T00:48:05.474Z,11.91
2017-10-10T00:49:05.477Z,11.91
2017-10-10T00:50:05.799Z,11.83
2017-10-10T00:51:05.792Z,11.91
2017-10-10T00:52:05.785Z,11.95
2017-10-10T00:53:05.789Z,11.84
2017-10-10T00:54:05.480Z,11.95
2017-10-10T00:55:05.830Z,11.87
2017-10-10T00:56:05.133Z,11.91
2017-10-10T00:57:05.773Z,12
2017-10-10T00:58:05.445Z,11.95
2017-10-10T00:59:05.443Z,11.86
2017-10-10T01:00:05.759Z,11.88
2017-10-10T01:01:09.647Z,11.94
2017-10-10T01:02:05.766Z,11.88
2017-10-10T01:03:05.447Z,11.78
2017-10-10T01:04:05.758Z,11.84
2017-10-10T01:05:05.108Z,11.77
2017-10-10T01:06:05.104Z,11.69
2017-10-10T01:07:05.427Z,11.72
2017-10-10T01:08:05.740Z,11.66
2017-10-10T01:09:05.416Z,11.65
2017-10-10T01:10:05.762Z,11.65
2017-10-10T01:11:05.727Z,11.55
2017-10-10T01:12:05.431Z,11.54
2017-10-10T01:13:05.734Z,11.5
2017-10-10T01:14:05.730Z,11.44
2017-10-10T01:15:05.720Z,11.5
2017-10-10T01:16:05.722Z,11.45
2017-10-10T01:17:05.716Z,11.41
2017-10-10T01:18:05.708Z,11.5
2017-10-10T01:19:05.398Z,11.35
2017-10-10T01:20:05.403Z,11.4
2017-10-10T01:21:05.381Z,11.41
2017-10-10T01:22:05.397Z,11.41
2017-10-10T01:23:05.706Z,11.29
2017-10-10T01:24:05.703Z,11.36
2017-10-10T01:25:05.379Z,11.32
2017-10-10T01:26:05.697Z,11.33
2017-10-10T01:27:05.362Z,11.32
2017-10-10T01:28:05.693Z,11.29
2017-10-10T01:29:05.037Z,11.27
2017-10-10T01:30:05.708Z,11.19
2017-10-10T01:31:05.352Z,11.26
2017-10-10T01:32:05.683Z,11.17
2017-10-10T01:33:05.355Z,11.1
2017-10-10T01:34:05.348Z,11.11
2017-10-10T01:35:05.691Z,11.07
2017-10-10T01:36:05.338Z,10.97
2017-10-10T01:37:05.667Z,11.05
2017-10-10T01:38:05.657Z,10.93
2017-10-10T01:39:05.653Z,10.94
2017-10-10T01:40:05.329Z,10.9
2017-10-10T01:41:05.648Z,10.9
2017-10-10T01:42:04.998Z,10.76
2017-10-10T01:43:05.634Z,10.82
2017-10-10T01:44:05.314Z,10.87
2017-10-10T01:45:05.316Z,10.82
2017-10-10T01:46:05.307Z,10.84
2017-10-10T01:47:08.820Z,10.86
2017-10-10T01:48:05.629Z,10.87
2017-10-10T01:49:05.623Z,10.82
2017-10-10T01:50:05.292Z,10.97
2017-10-10T01:51:05.618Z,10.9
2017-10-10T01:52:05.281Z,10.96
2017-10-10T01:53:05.613Z,10.96
2017-10-10T01:54:05.602Z,10.93
2017-10-10T01:55:05.624Z,10.87
2017-10-10T01:56:04.964Z,10.93
2017-10-10T01:57:05.263Z,10.82
2017-10-10T01:58:05.262Z,10.9
2017-10-10T01:59:04.938Z,10.82
2017-10-10T02:00:05.617Z,10.81
2017-10-10T02:01:05.290Z,10.79
2017-10-10T02:02:08.780Z,10.92
2017-10-10T02:03:04.925Z,10.76
2017-10-10T02:04:05.578Z,10.84
2017-10-10T02:05:05.600Z,10.78
2017-10-10T02:06:05.564Z,10.74
2017-10-10T02:07:05.228Z,10.74
2017-10-10T02:08:05.233Z,10.72
2017-10-10T02:09:05.234Z,10.72
2017-10-10T02:10:05.543Z,10.72
2017-10-10T02:11:05.219Z,10.59
2017-10-10T02:12:05.213Z,10.67
2017-10-10T02:13:05.525Z,10.64
2017-10-10T02:14:05.527Z,10.64
2017-10-10T02:15:05.214Z,10.71
2017-10-10T02:16:05.198Z,10.71
2017-10-10T02:17:05.201Z,10.74
2017-10-10T02:18:04.871Z,10.74
2017-10-10T02:19:05.532Z,10.72
2017-10-10T02:20:05.626Z,10.69
2017-10-10T02:21:04.949Z,10.71
2017-10-10T02:22:05.508Z,10.64
2017-10-10T02:23:05.507Z,10.75
2017-10-10T02:24:05.491Z,10.76
2017-10-10T02:25:05.596Z,10.78
2017-10-10T02:26:05.492Z,10.89
2017-10-10T02:27:05.506Z,10.9
2017-10-10T02:28:04.835Z,10.92
2017-10-10T02:29:05.475Z,10.99
2017-10-10T02:30:05.483Z,11.08
2017-10-10T02:31:05.479Z,11.12
2017-10-10T02:32:05.472Z,11.08
2017-10-10T02:33:05.476Z,11.18
2017-10-10T02:34:05.146Z,11.25
2017-10-10T02:35:05.473Z,11.23
2017-10-10T02:36:05.446Z,11.29
2017-10-10T02:37:05.459Z,11.29
2017-10-10T02:38:05.121Z,11.32
2017-10-10T02:39:05.121Z,11.29
2017-10-10T02:40:05.458Z,11.3
2017-10-10T02:41:05.114Z,11.43
2017-10-10T02:42:05.442Z,11.36
2017-10-10T02:43:05.102Z,11.23
2017-10-10T02:44:05.418Z,11.35
2017-10-10T02:45:05.438Z,11.4
2017-10-10T02:46:05.053Z,11.35
2017-10-10T02:47:05.092Z,11.32
2017-10-10T02:48:05.413Z,11.32
2017-10-10T02:49:05.089Z,11.35
2017-10-10T02:50:05.076Z,11.36
2017-10-10T02:51:05.399Z,11.41
2017-10-10T02:52:05.400Z,11.36
2017-10-10T02:53:05.066Z,11.35
2017-10-10T02:54:05.388Z,11.4
2017-10-10T02:55:05.065Z,11.44
2017-10-10T02:56:05.095Z,11.43
2017-10-10T02:57:05.084Z,11.33
2017-10-10T02:58:05.460Z,11.4
2017-10-10T02:59:05.385Z,11.47
2017-10-10T03:00:04.728Z,11.35
2017-10-10T03:01:05.060Z,11.47
2017-10-10T03:02:05.047Z,11.37
2017-10-10T03:03:05.541Z,11.44
2017-10-10T03:04:05.354Z,11.45
2017-10-10T03:05:05.369Z,11.5
2017-10-10T03:06:05.350Z,11.52
2017-10-10T03:07:04.713Z,11.51
2017-10-10T03:08:05.031Z,11.52
2017-10-10T03:09:05.014Z,11.47
2017-10-10T03:10:05.014Z,11.47
2017-10-10T03:11:05.020Z,11.54
2017-10-10T03:12:05.327Z,11.5
2017-10-10T03:13:05.016Z,11.45
2017-10-10T03:14:05.009Z,11.44
2017-10-10T03:15:05.317Z,11.47
2017-10-10T03:16:05.015Z,11.47
2017-10-10T03:17:05.005Z,11.44
2017-10-10T03:18:05.614Z,11.5
2017-10-10T03:19:05.304Z,11.48
2017-10-10T03:20:04.979Z,11.59
2017-10-10T03:21:05.019Z,11.59
2017-10-10T03:22:04.981Z,11.6
2017-10-10T03:23:04.707Z,11.6
2017-10-10T03:24:04.971Z,11.57
2017-10-10T03:25:05.294Z,11.62
2017-10-10T03:26:05.278Z,11.7
2017-10-10T03:27:05.278Z,11.66
2017-10-10T03:28:05.039Z,11.65
2017-10-10T03:29:04.958Z,11.66
2017-10-10T03:30:04.957Z,11.6
2017-10-10T03:31:04.953Z,11.57
2017-10-10T03:32:04.975Z,11.54
2017-10-10T03:33:06.358Z,11.54
2017-10-10T03:34:04.933Z,11.48
2017-10-10T03:35:04.608Z,11.5
2017-10-10T03:36:04.604Z,11.41
2017-10-10T03:37:04.921Z,11.47
2017-10-10T03:38:05.242Z,11.44
2017-10-10T03:39:04.917Z,11.44
2017-10-10T03:40:04.960Z,11.44
2017-10-10T03:41:04.587Z,11.41
2017-10-10T03:42:05.240Z,11.5
2017-10-10T03:43:04.911Z,11.51
2017-10-10T03:44:05.224Z,11.52
2017-10-10T03:45:05.218Z,11.57
2017-10-10T03:46:05.271Z,11.48
2017-10-10T03:47:04.715Z,11.51
2017-10-10T03:48:04.565Z,11.54
2017-10-10T03:49:04.883Z,11.47
2017-10-10T03:50:05.206Z,11.5
2017-10-10T03:51:05.200Z,11.47
2017-10-10T03:52:05.201Z,11.45
2017-10-10T03:53:04.865Z,11.45
2017-10-10T03:54:04.878Z,11.41
2017-10-10T03:55:05.183Z,11.44
2017-10-10T03:56:05.187Z,11.51
2017-10-10T03:57:05.187Z,11.41
2017-10-10T03:58:04.531Z,11.44
2017-10-10T03:59:04.847Z,11.4
2017-10-10T04:00:04.846Z,11.47
2017-10-10T04:01:05.174Z,11.44
2017-10-10T04:02:04.842Z,11.4
2017-10-10T04:03:05.098Z,11.35
2017-10-10T04:04:05.167Z,11.3
2017-10-10T04:05:04.836Z,11.25
2017-10-10T04:06:04.843Z,11.3
2017-10-10T04:07:04.836Z,11.22
2017-10-10T04:08:05.142Z,11.27
2017-10-10T04:09:04.815Z,11.25
2017-10-10T04:10:05.136Z,11.19
2017-10-10T04:11:05.137Z,11.08
2017-10-10T04:12:05.138Z,11.1
2017-10-10T04:13:04.820Z,11.14
2017-10-10T04:14:05.117Z,11.15
2017-10-10T04:15:04.804Z,11.18
2017-10-10T04:16:05.116Z,11.1
2017-10-10T04:17:04.470Z,11.15
2017-10-10T04:18:05.307Z,11.14
2017-10-10T04:19:04.459Z,11.15
2017-10-10T04:20:05.137Z,11.19
2017-10-10T04:21:04.783Z,11.26
2017-10-10T04:22:05.095Z,11.27
2017-10-10T04:23:04.773Z,11.36
2017-10-10T04:24:05.086Z,11.33
2017-10-10T04:25:05.118Z,11.33
2017-10-10T04:26:05.091Z,11.36
2017-10-10T04:27:04.754Z,11.41
2017-10-10T04:28:05.085Z,11.33
2017-10-10T04:29:04.751Z,11.37
2017-10-10T04:30:04.747Z,11.4
2017-10-10T04:31:05.064Z,11.36
2017-10-10T04:32:04.415Z,11.45
2017-10-10T04:33:05.304Z,11.32
2017-10-10T04:34:04.750Z,11.37
2017-10-10T04:35:05.052Z,11.43
2017-10-10T04:36:04.733Z,11.37
2017-10-10T04:37:05.057Z,11.37
2017-10-10T04:38:05.059Z,11.44
2017-10-10T04:39:04.716Z,11.43
2017-10-10T04:40:05.046Z,11.37
2017-10-10T04:41:04.399Z,11.37
2017-10-10T04:42:05.053Z,11.44
2017-10-10T04:43:04.400Z,11.47
2017-10-10T04:44:05.027Z,11.41
2017-10-10T04:45:05.021Z,11.4
2017-10-10T04:46:05.021Z,11.47
2017-10-10T04:47:05.013Z,11.45
2017-10-10T04:48:09.025Z,11.55
2017-10-10T04:49:05.028Z,11.57
2017-10-10T04:50:04.355Z,11.68
2017-10-10T04:51:04.681Z,11.62
2017-10-10T04:52:04.356Z,11.66
2017-10-10T04:53:04.677Z,11.7
2017-10-10T04:54:04.667Z,11.75
2017-10-10T04:55:04.661Z,11.84
2017-10-10T04:56:04.658Z,11.81
2017-10-10T04:57:04.977Z,11.81
2017-10-10T04:58:04.998Z,11.84
2017-10-10T04:59:04.335Z,11.81
2017-10-10T05:00:04.972Z,11.86
2017-10-10T05:01:04.973Z,11.73
2017-10-10T05:02:04.636Z,11.84
2017-10-10T05:03:04.971Z,11.75
2017-10-10T05:04:05.001Z,11.73
2017-10-10T05:05:04.647Z,11.78
2017-10-10T05:06:04.630Z,11.73
2017-10-10T05:07:04.629Z,11.83
2017-10-10T05:08:04.642Z,11.86
2017-10-10T05:09:04.323Z,11.8
2017-10-10T05:10:04.618Z,11.75
2017-10-10T05:11:04.943Z,11.83
2017-10-10T05:12:04.930Z,11.83
2017-10-10T05:13:04.606Z,11.83
2017-10-10T05:14:04.604Z,11.8
2017-10-10T05:15:04.945Z,11.8
2017-10-10T05:16:04.603Z,11.73
2017-10-10T05:17:04.915Z,11.73
2017-10-10T05:18:04.923Z,11.84
2017-10-10T05:19:06.765Z,11.78
2017-10-10T05:20:04.910Z,11.73
2017-10-10T05:21:04.583Z,11.8
2017-10-10T05:22:04.905Z,11.86
2017-10-10T05:23:04.901Z,11.84
2017-10-10T05:24:04.918Z,11.86
2017-10-10T05:25:04.902Z,11.83
2017-10-10T05:26:04.926Z,11.72
2017-10-10T05:27:04.887Z,11.72
2017-10-10T05:28:04.881Z,11.78
2017-10-10T05:29:04.571Z,11.72
2017-10-10T05:30:04.937Z,11.86
2017-10-10T05:31:04.884Z,11.86
2017-10-10T05:32:04.887Z,11.81
2017-10-10T05:33:04.886Z,11.86
2017-10-10T05:34:06.408Z,11.86
2017-10-10T05:35:04.547Z,11.87
2017-10-10T05:36:04.871Z,11.84
2017-10-10T05:37:04.559Z,11.87
2017-10-10T05:38:04.870Z,11.87
2017-10-10T05:39:04.533Z,11.81
2017-10-10T05:40:04.871Z,11.84
2017-10-10T05:41:04.850Z,11.87
2017-10-10T05:42:04.204Z,11.8
2017-10-10T05:43:04.528Z,11.83
2017-10-10T05:44:04.841Z,11.83
2017-10-10T05:45:04.518Z,11.87
2017-10-10T05:46:04.513Z,11.81
2017-10-10T05:47:04.835Z,11.88
2017-10-10T05:48:04.509Z,11.84
2017-10-10T05:49:04.508Z,11.86
2017-10-10T05:50:04.188Z,11.87
2017-10-10T05:51:04.832Z,11.91
2017-10-10T05:52:04.523Z,11.91
2017-10-10T05:53:04.178Z,11.91
2017-10-10T05:54:04.499Z,11.97
2017-10-10T05:55:04.497Z,11.88
2017-10-10T05:56:04.814Z,11.88
2017-10-10T05:57:04.490Z,11.99
2017-10-10T05:58:04.834Z,11.91
2017-10-10T05:59:04.806Z,11.91
2017-10-10T06:00:04.815Z,12
2017-10-10T06:01:04.485Z,12
2017-10-10T06:02:04.804Z,12.09
2017-10-10T06:03:04.473Z,12
2017-10-10T06:04:04.156Z,12.03
2017-10-10T06:05:08.608Z,12.03
2017-10-10T06:06:04.790Z,12.06
2017-10-10T06:07:04.783Z,12.17
2017-10-10T06:08:04.465Z,12.12
2017-10-10T06:09:04.782Z,12.13
2017-10-10T06:10:04.783Z,12.13
2017-10-10T06:11:04.783Z,12.15
2017-10-10T06:12:04.469Z,12.13
2017-10-10T06:13:04.787Z,12.21
2017-10-10T06:14:04.455Z,12.2
2017-10-10T06:15:04.770Z,12.22
2017-10-10T06:16:04.476Z,12.21
2017-10-10T06:17:04.770Z,12.21
2017-10-10T06:18:04.776Z,12.29
2017-10-10T06:19:04.765Z,12.31
2017-10-10T06:20:05.869Z,12.29
2017-10-10T06:21:04.752Z,12.31
2017-10-10T06:22:04.763Z,12.28
2017-10-10T06:23:04.426Z,12.4
2017-10-10T06:24:04.114Z,12.25
2017-10-10T06:25:04.754Z,12.4
2017-10-10T06:26:04.741Z,12.36
2017-10-10T06:27:04.747Z,12.35
2017-10-10T06:28:04.416Z,12.4
2017-10-10T06:29:04.753Z,12.47
2017-10-10T06:30:04.415Z,12.47
2017-10-10T06:31:04.085Z,12.47
2017-10-10T06:32:04.082Z,12.55
2017-10-10T06:33:04.410Z,12.5
2017-10-10T06:34:04.725Z,12.53
2017-10-10T06:35:04.719Z,12.57
2017-10-10T06:36:04.400Z,12.54
2017-10-10T06:37:04.404Z,12.62
2017-10-10T06:38:04.719Z,12.49
2017-10-10T06:39:04.706Z,12.47
2017-10-10T06:40:04.728Z,12.58
2017-10-10T06:41:04.057Z,12.6
2017-10-10T06:42:04.406Z,12.62
2017-10-10T06:43:04.704Z,12.62
2017-10-10T06:44:04.722Z,12.67
2017-10-10T06:45:04.369Z,12.7
2017-10-10T06:46:04.688Z,12.76
2017-10-10T06:47:04.687Z,12.67
2017-10-10T06:48:04.715Z,12.76
2017-10-10T06:49:04.042Z,12.76
2017-10-10T06:50:04.680Z,12.76
2017-10-10T06:51:06.340Z,12.8
2017-10-10T06:52:04.672Z,12.8
2017-10-10T06:53:04.696Z,12.82
2017-10-10T06:54:04.693Z,12.85
2017-10-10T06:55:04.368Z,12.9
2017-10-10T06:56:04.032Z,12.9
2017-10-10T06:57:04.669Z,12.91
2017-10-10T06:58:04.348Z,13.01
2017-10-10T06:59:04.663Z,12.98
2017-10-10T07:00:04.661Z,13.04
2017-10-10T07:01:04.015Z,13.04
2017-10-10T07:02:04.662Z,13
2017-10-10T07:03:04.011Z,13.01
2017-10-10T07:04:04.013Z,13
2017-10-10T07:05:04.664Z,13.04
2017-10-10T07:06:09.682Z,13.03
2017-10-10T07:07:04.662Z,13.08
2017-10-10T07:08:04.010Z,13.08
2017-10-10T07:09:04.320Z,13.03
2017-10-10T07:10:04.321Z,12.98
2017-10-10T07:11:04.679Z,12.98
2017-10-10T07:12:04.644Z,13.05
2017-10-10T07:13:04.641Z,13.01
2017-10-10T07:14:04.631Z,13.03
2017-10-10T07:15:04.634Z,13.05
2017-10-10T07:16:04.307Z,13.01
2017-10-10T07:17:04.317Z,13.12
2017-10-10T07:18:03.984Z,13.03
2017-10-10T07:19:04.635Z,13.01
2017-10-10T07:20:03.989Z,13.01
2017-10-10T07:21:04.620Z,13
2017-10-10T07:22:04.624Z,13.03
2017-10-10T07:23:03.977Z,13.01
2017-10-10T07:24:04.614Z,13.01
2017-10-10T07:25:03.975Z,12.98
2017-10-10T07:26:04.609Z,13.08
2017-10-10T07:27:03.969Z,13.13
2017-10-10T07:28:03.967Z,13.15
2017-10-10T07:29:04.617Z,13.15
2017-10-10T07:30:04.619Z,13.15
2017-10-10T07:31:04.285Z,12.98
2017-10-10T07:32:04.292Z,12.97
2017-10-10T07:33:04.594Z,12.95
2017-10-10T07:34:04.610Z,12.95
2017-10-10T07:35:04.590Z,12.8
2017-10-10T07:36:04.597Z,12.79
2017-10-10T07:37:04.586Z,12.83
2017-10-10T07:38:04.605Z,12.83
2017-10-10T07:39:04.590Z,12.83
2017-10-10T07:40:04.259Z,12.83
2017-10-10T07:41:04.576Z,12.8
2017-10-10T07:42:04.250Z,12.79
2017-10-10T07:43:03.926Z,12.87
2017-10-10T07:44:04.574Z,12.79
2017-10-10T07:45:04.252Z,12.87
2017-10-10T07:46:04.572Z,12.97
2017-10-10T07:47:04.577Z,12.95
2017-10-10T07:48:04.252Z,13.01
2017-10-10T07:49:04.587Z,13.03
2017-10-10T07:50:04.571Z,13.08
2017-10-10T07:51:04.594Z,13.13
2017-10-10T07:52:03.905Z,13.12
2017-10-10T07:53:03.901Z,13.18
2017-10-10T07:54:04.222Z,13.01
2017-10-10T07:55:04.224Z,13.04
2017-10-10T07:56:04.538Z,13.15
2017-10-10T07:57:04.221Z,13.04
2017-10-10T07:58:03.904Z,13.15
2017-10-10T07:59:04.542Z,13.11
2017-10-10T08:00:04.224Z,13.13
2017-10-10T08:01:04.528Z,13.09
2017-10-10T08:02:04.539Z,13.11
2017-10-10T08:03:04.537Z,13.12
2017-10-10T08:04:04.527Z,13.22
2017-10-10T08:05:04.525Z,13.22
2017-10-10T08:06:04.201Z,13.23
2017-10-10T08:07:04.528Z,13.23
2017-10-10T08:08:04.528Z,13.28
2017-10-10T08:09:04.524Z,13.33
2017-10-10T08:10:04.535Z,13.35
2017-10-10T08:11:04.529Z,13.38
2017-10-10T08:12:04.529Z,13.47
2017-10-10T08:13:04.540Z,13.47
2017-10-10T08:14:04.532Z,13.6
2017-10-10T08:15:04.185Z,13.6
2017-10-10T08:16:04.176Z,13.68
2017-10-10T08:17:04.533Z,13.7
2017-10-10T08:18:04.507Z,13.7
2017-10-10T08:19:04.506Z,13.78
2017-10-10T08:20:04.497Z,13.86
2017-10-10T08:21:04.197Z,13.87
2017-10-10T08:22:08.708Z,13.87
2017-10-10T08:23:04.513Z,13.87
2017-10-10T08:24:04.170Z,13.75
2017-10-10T08:25:04.488Z,13.89
2017-10-10T08:26:04.183Z,13.77
2017-10-10T08:27:04.484Z,13.9
2017-10-10T08:28:04.481Z,13.96
2017-10-10T08:29:04.188Z,13.99
2017-10-10T08:30:04.484Z,14.14
2017-10-10T08:31:04.486Z,14.11
2017-10-10T08:32:03.841Z,14.17
2017-10-10T08:33:04.160Z,14.12
2017-10-10T08:34:04.167Z,14.22
2017-10-10T08:35:04.487Z,14.29
2017-10-10T08:36:03.833Z,14.33
2017-10-10T08:37:03.856Z,14.33
2017-10-10T08:38:04.480Z,14.44
2017-10-10T08:39:04.156Z,14.5
2017-10-10T08:40:04.474Z,14.51
2017-10-10T08:41:03.832Z,14.65
2017-10-10T08:42:04.473Z,14.63
2017-10-10T08:43:04.503Z,14.5
2017-10-10T08:44:04.150Z,14.62
2017-10-10T08:45:03.833Z,14.62
2017-10-10T08:46:04.478Z,14.62
2017-10-10T08:47:04.484Z,14.86
2017-10-10T08:48:04.471Z,14.91
2017-10-10T08:49:04.147Z,14.86
2017-10-10T08:50:04.474Z,14.91
2017-10-10T08:51:04.476Z,15.03
2017-10-10T08:52:04.145Z,15.19
2017-10-10T08:53:04.146Z,15.28
2017-10-10T08:54:04.146Z,15.22
2017-10-10T08:55:04.469Z,15.24
2017-10-10T08:56:04.144Z,15.25
2017-10-10T08:57:04.152Z,15.21
2017-10-10T08:58:04.476Z,15.22
2017-10-10T08:59:03.824Z,15.27
2017-10-10T09:00:04.505Z,15.27
2017-10-10T09:01:04.150Z,15.17
2017-10-10T09:02:04.474Z,15.21
2017-10-10T09:03:03.824Z,15.14
2017-10-10T09:04:04.470Z,15.14
2017-10-10T09:05:04.145Z,15.07
2017-10-10T09:06:04.475Z,15.04
2017-10-10T09:07:04.489Z,15.06
2017-10-10T09:08:05.571Z,15.03
2017-10-10T09:09:04.154Z,14.99
2017-10-10T09:10:03.825Z,15
2017-10-10T09:11:04.149Z,15
2017-10-10T09:12:03.825Z,14.97
2017-10-10T09:13:04.144Z,15.04
2017-10-10T09:14:04.622Z,15.02
2017-10-10T09:15:04.477Z,14.99
2017-10-10T09:16:04.147Z,15.04
2017-10-10T09:17:04.468Z,15.1
2017-10-10T09:18:04.546Z,15.14
2017-10-10T09:19:04.481Z,15.06
2017-10-10T09:20:04.164Z,15.17
2017-10-10T09:21:04.490Z,15.15
2017-10-10T09:22:04.469Z,15.15
2017-10-10T09:23:04.457Z,15.22
2017-10-10T09:24:04.161Z,15.27
2017-10-10T09:25:04.156Z,15.21
2017-10-10T09:26:04.177Z,15.18
2017-10-10T09:27:03.829Z,15.15
2017-10-10T09:28:04.469Z,15.03
2017-10-10T09:29:04.470Z,15.11
2017-10-10T09:30:04.469Z,15.17
2017-10-10T09:31:04.472Z,15.06
2017-10-10T09:32:04.488Z,15.22
2017-10-10T09:33:04.256Z,15.17
2017-10-10T09:34:04.489Z,15.1
2017-10-10T09:35:04.151Z,15.15
2017-10-10T09:36:04.157Z,15.1
2017-10-10T09:37:04.148Z,15.19
2017-10-10T09:38:05.252Z,15.15
2017-10-10T09:39:04.152Z,15.03
2017-10-10T09:40:04.503Z,15.03
2017-10-10T09:41:03.842Z,15.03
2017-10-10T09:42:04.476Z,15.11
2017-10-10T09:43:04.158Z,14.97
2017-10-10T09:44:04.479Z,14.96
2017-10-10T09:45:04.505Z,15
2017-10-10T09:46:04.479Z,14.88
2017-10-10T09:47:04.149Z,14.89
2017-10-10T09:48:04.480Z,14.92
2017-10-10T09:49:04.468Z,14.94
2017-10-10T09:50:04.143Z,15.03
2017-10-10T09:51:04.484Z,15.04
2017-10-10T09:52:04.151Z,15.07
2017-10-10T09:53:05.287Z,15.06
2017-10-10T09:54:04.480Z,15
2017-10-10T09:55:04.471Z,15
2017-10-10T09:56:04.146Z,15.11
2017-10-10T09:57:04.152Z,14.99
2017-10-10T09:58:04.486Z,15.03
2017-10-10T09:59:04.473Z,14.99
2017-10-10T10:00:04.152Z,15.07
2017-10-10T10:01:04.483Z,14.99
2017-10-10T10:02:04.151Z,15.09
2017-10-10T10:03:04.475Z,15.22
2017-10-10T10:04:04.467Z,15.22
2017-10-10T10:05:04.148Z,15.22
2017-10-10T10:06:04.480Z,15.15
2017-10-10T10:07:04.148Z,15.31
2017-10-10T10:08:04.146Z,15.27
2017-10-10T10:09:04.471Z,15.43
2017-10-10T10:10:04.149Z,15.27
2017-10-10T10:11:04.469Z,15.25
2017-10-10T10:12:04.487Z,15.37
2017-10-10T10:13:04.175Z,15.47
2017-10-10T10:14:04.636Z,15.46
2017-10-10T10:15:04.145Z,15.58
2017-10-10T10:16:04.167Z,15.55
2017-10-10T10:17:04.147Z,15.65
2017-10-10T10:18:04.474Z,15.77
2017-10-10T10:19:04.485Z,15.82
2017-10-10T10:20:04.153Z,16
2017-10-10T10:21:04.152Z,16.09
2017-10-10T10:22:04.146Z,16.13
2017-10-10T10:23:04.477Z,16.47
2017-10-10T10:24:05.355Z,16.54
2017-10-10T10:25:03.829Z,16.61
2017-10-10T10:26:04.480Z,16.71
2017-10-10T10:27:04.482Z,16.66
2017-10-10T10:28:04.481Z,16.68
2017-10-10T10:29:04.480Z,16.71
2017-10-10T10:30:04.481Z,16.87
2017-10-10T10:31:04.185Z,16.89
2017-10-10T10:32:04.154Z,17.01
2017-10-10T10:33:04.162Z,16.94
2017-10-10T10:34:04.487Z,16.97
2017-10-10T10:35:04.490Z,16.99
2017-10-10T10:36:04.490Z,17.12
2017-10-10T10:37:04.170Z,17.12
2017-10-10T10:38:04.178Z,17.05
2017-10-10T10:39:04.900Z,17.02
2017-10-10T10:40:04.178Z,17.12
2017-10-10T10:41:04.489Z,17.02
2017-10-10T10:42:04.177Z,16.97
2017-10-10T10:43:04.188Z,16.86
2017-10-10T10:44:04.501Z,16.79
2017-10-10T10:45:04.503Z,16.87
2017-10-10T10:46:04.221Z,16.79
2017-10-10T10:47:04.501Z,16.69
2017-10-10T10:48:04.180Z,16.65
2017-10-10T10:49:04.186Z,16.54
2017-10-10T10:50:04.206Z,16.5
2017-10-10T10:51:04.200Z,16.53
2017-10-10T10:52:04.182Z,16.35
2017-10-10T10:53:04.192Z,16.51
2017-10-10T10:54:04.527Z,16.51
2017-10-10T10:55:04.197Z,16.56
2017-10-10T10:56:04.511Z,16.54
2017-10-10T10:57:04.193Z,16.54
2017-10-10T10:58:04.532Z,16.49
2017-10-10T10:59:04.518Z,16.46
2017-10-10T11:00:04.197Z,16.51
2017-10-10T11:01:04.196Z,16.53
2017-10-10T11:02:04.204Z,16.51
2017-10-10T11:03:04.205Z,16.41
2017-10-10T11:04:04.545Z,16.33
2017-10-10T11:05:04.541Z,16.33
2017-10-10T11:06:04.202Z,16.31
2017-10-10T11:07:04.200Z,16.16
2017-10-10T11:08:04.537Z,16.33
2017-10-10T11:09:04.540Z,16.26
2017-10-10T11:10:04.525Z,16.28
2017-10-10T11:11:04.203Z,16.31
2017-10-10T11:12:04.523Z,16.32
2017-10-10T11:13:04.212Z,16.31
2017-10-10T11:14:04.211Z,16.39
2017-10-10T11:15:04.539Z,16.51
2017-10-10T11:16:04.542Z,16.53
2017-10-10T11:17:03.885Z,16.53
2017-10-10T11:18:04.211Z,16.64
2017-10-10T11:19:04.216Z,16.66
2017-10-10T11:20:04.219Z,16.76
2017-10-10T11:21:04.209Z,16.93
2017-10-10T11:22:04.609Z,16.84
2017-10-10T11:23:04.555Z,16.81
2017-10-10T11:24:04.546Z,16.83
2017-10-10T11:25:04.215Z,16.74
2017-10-10T11:26:04.558Z,16.79
2017-10-10T11:27:03.897Z,16.69
2017-10-10T11:28:04.558Z,16.61
2017-10-10T11:29:04.222Z,16.53
2017-10-10T11:30:04.239Z,16.5
2017-10-10T11:31:04.221Z,16.31
2017-10-10T11:32:04.229Z,16.31
2017-10-10T11:33:04.221Z,16.17
2017-10-10T11:34:04.556Z,16.23
2017-10-10T11:35:04.229Z,16.24
2017-10-10T11:36:04.561Z,16.33
2017-10-10T11:37:04.555Z,16.33
2017-10-10T11:38:04.568Z,16.23
2017-10-10T11:39:04.228Z,16.23
2017-10-10T11:40:04.572Z,16.33
2017-10-10T11:41:04.226Z,16.32
2017-10-10T11:42:04.552Z,16.32
2017-10-10T11:43:04.555Z,16.33
2017-10-10T11:44:03.910Z,16.33
2017-10-10T11:45:04.249Z,16.31
2017-10-10T11:46:04.571Z,16.33
2017-10-10T11:47:04.555Z,16.35
2017-10-10T11:48:04.572Z,16.33
2017-10-10T11:49:04.557Z,16.33
2017-10-10T11:50:04.558Z,16.35
2017-10-10T11:51:04.572Z,16.35
2017-10-10T11:52:04.233Z,16.28
2017-10-10T11:53:04.260Z,16.38
2017-10-10T11:54:04.562Z,16.31
2017-10-10T11:55:06.684Z,16.33
2017-10-10T11:56:03.913Z,16.36
2017-10-10T11:57:04.563Z,16.24
2017-10-10T11:58:04.232Z,16.24
2017-10-10T11:59:04.605Z,16.24
2017-10-10T12:00:04.242Z,16.17
2017-10-10T12:01:04.639Z,16.13
2017-10-10T12:02:04.565Z,16.17
2017-10-10T12:03:04.595Z,16.15
2017-10-10T12:04:03.929Z,16.15
2017-10-10T12:05:04.576Z,16.09
2017-10-10T12:06:04.247Z,16.02
2017-10-10T12:07:04.259Z,16.04
2017-10-10T12:08:04.239Z,15.98
2017-10-10T12:09:04.570Z,15.91
2017-10-10T12:10:06.463Z,16
2017-10-10T12:11:04.645Z,15.95
2017-10-10T12:12:04.570Z,16.08
2017-10-10T12:13:04.594Z,16.04
2017-10-10T12:14:04.299Z,16.05
2017-10-10T12:15:04.590Z,16
2017-10-10T12:16:04.275Z,16.04
2017-10-10T12:17:04.245Z,16.05
2017-10-10T12:18:04.250Z,16.1
2017-10-10T12:19:04.255Z,16.09
2017-10-10T12:20:04.576Z,16.1
2017-10-10T12:21:04.573Z,16.01
2017-10-10T12:22:04.253Z,16.04
2017-10-10T12:23:04.280Z,16.09
2017-10-10T12:24:04.245Z,16.02
2017-10-10T12:25:04.251Z,16.04
2017-10-10T12:26:04.245Z,16.02
2017-10-10T12:27:04.607Z,16.09
2017-10-10T12:28:03.961Z,16.05
2017-10-10T12:29:04.577Z,16.08
2017-10-10T12:30:04.251Z,16.08
2017-10-10T12:31:04.566Z,16.17
2017-10-10T12:32:04.579Z,16.1
2017-10-10T12:33:03.925Z,16.09
2017-10-10T12:34:03.936Z,16.2
2017-10-10T12:35:04.258Z,16.05
2017-10-10T12:36:04.367Z,16.1
2017-10-10T12:37:04.260Z,16.01
2017-10-10T12:38:04.268Z,15.94
2017-10-10T12:39:04.571Z,15.92
2017-10-10T12:40:04.254Z,15.95
2017-10-10T12:41:04.249Z,15.91
2017-10-10T12:42:04.248Z,15.9
2017-10-10T12:43:04.583Z,16
2017-10-10T12:44:04.571Z,16.05
2017-10-10T12:45:04.572Z,16.09
2017-10-10T12:46:04.272Z,16.08
2017-10-10T12:47:04.594Z,16.08
2017-10-10T12:48:04.606Z,16.05
2017-10-10T12:49:03.935Z,16.05
2017-10-10T12:50:04.251Z,16.01
2017-10-10T12:51:04.592Z,16.01
2017-10-10T12:52:04.577Z,16
2017-10-10T12:53:03.937Z,16.08
2017-10-10T12:54:04.597Z,16.09
2017-10-10T12:55:04.259Z,16.1
2017-10-10T12:56:04.253Z,16.13